createdAt,value
2023-04-16T00:01:34.860Z,17.65
2023-04-16T00:04:01.703Z,19.23
2023-04-16T00:06:28.687Z,17.70
2023-04-16T00:08:55.238Z,18.52
2023-04-16T00:11:22.128Z,17.00
2023-04-16T00:13:48.962Z,16.70
2023-04-16T00:16:15.529Z,17.27
2023-04-16T00:18:41.913Z,16.42
2023-04-16T00:21:08.292Z,17.27
2023-04-16T00:23:34.678Z,17.23
2023-04-16T00:26:01.162Z,18.58
2023-04-16T00:28:27.632Z,16.83
2023-04-16T00:30:54.811Z,17.63
2023-04-16T00:33:21.449Z,16.35
2023-04-16T00:35:48.534Z,16.73
2023-04-16T00:38:15.017Z,16.33
2023-04-16T00:40:41.393Z,16.42
2023-04-16T00:43:07.764Z,16.95
2023-04-16T00:45:34.472Z,17.08
2023-04-16T00:48:01.495Z,17.25
2023-04-16T00:50:28.216Z,17.10
2023-04-16T00:52:55.570Z,15.48
2023-04-16T00:55:22.103Z,18.08
2023-04-16T00:57:48.522Z,15.90
2023-04-16T01:00:15.006Z,16.63
2023-04-16T01:02:41.816Z,15.27
2023-04-16T01:05:08.497Z,16.10
2023-04-16T01:07:35.055Z,16.13
2023-04-16T01:10:01.451Z,15.63
2023-04-16T01:12:27.863Z,16.30
2023-04-16T01:14:54.391Z,16.05
2023-04-16T01:17:20.771Z,16.98
2023-04-16T01:19:47.139Z,14.82
2023-04-16T01:22:17.569Z,16.15
2023-04-16T01:24:45.085Z,16.75
2023-04-16T01:27:11.446Z,15.48
2023-04-16T01:29:37.867Z,14.98
2023-04-16T01:32:04.280Z,15.98
2023-04-16T01:34:33.946Z,16.40
2023-04-16T01:37:00.388Z,14.52
2023-04-16T01:39:28.660Z,15.27
2023-04-16T01:41:57.084Z,16.00
2023-04-16T01:44:23.605Z,14.48
2023-04-16T01:46:50.147Z,15.25
2023-04-16T01:49:16.716Z,14.45
2023-04-16T01:51:43.788Z,14.80
2023-04-16T01:54:10.170Z,14.95
2023-04-16T01:56:36.534Z,14.45
2023-04-16T01:59:03.157Z,13.82
2023-04-16T02:01:35.850Z,14.57
2023-04-16T02:04:03.153Z,15.82
2023-04-16T02:06:30.481Z,13.88
2023-04-16T02:08:56.874Z,15.02
2023-04-16T02:11:23.965Z,15.50
2023-04-16T02:13:50.751Z,14.15
2023-04-16T02:16:18.252Z,14.60
2023-04-16T02:19:04.503Z,14.20
2023-04-16T02:21:34.296Z,15.20
2023-04-16T02:24:00.795Z,15.00
2023-04-16T02:26:29.889Z,14.10
2023-04-16T02:29:01.851Z,14.73
2023-04-16T02:31:36.612Z,14.43
2023-04-16T02:34:03.790Z,14.75
2023-04-16T02:36:31.417Z,15.63
2023-04-16T02:38:58.568Z,15.25
2023-04-16T02:41:24.983Z,15.60
2023-04-16T02:43:51.417Z,14.88
2023-04-16T02:46:17.816Z,14.93
2023-04-16T02:48:44.216Z,14.43
2023-04-16T02:51:10.979Z,15.40
2023-04-16T02:53:37.413Z,15.95
2023-04-16T02:56:03.916Z,15.63
2023-04-16T02:58:30.873Z,14.82
2023-04-16T03:00:57.290Z,15.35
2023-04-16T03:03:23.947Z,14.85
2023-04-16T03:05:50.968Z,15.23
2023-04-16T03:08:17.366Z,14.73
2023-04-16T03:10:43.878Z,14.52
2023-04-16T03:13:10.257Z,14.32
2023-04-16T03:15:36.698Z,15.75
2023-04-16T03:18:03.188Z,15.57
2023-04-16T03:20:29.672Z,15.20
2023-04-16T03:22:57.144Z,15.10
2023-04-16T03:25:23.513Z,15.45
2023-04-16T03:27:51.005Z,15.55
2023-04-16T03:30:17.470Z,15.20
2023-04-16T03:32:43.927Z,14.57
2023-04-16T03:35:11.230Z,15.27
2023-04-16T03:37:37.812Z,15.57
2023-04-16T03:40:06.824Z,15.70
2023-04-16T03:42:33.520Z,16.65
2023-04-16T03:45:00.646Z,16.02
2023-04-16T03:47:28.056Z,16.45
2023-04-16T03:49:58.228Z,15.77
2023-04-16T03:52:24.648Z,16.13
2023-04-16T03:54:52.251Z,15.93
2023-04-16T03:57:25.802Z,16.63
2023-04-16T03:59:55.654Z,15.98
2023-04-16T04:02:23.240Z,16.45
2023-04-16T04:04:49.858Z,17.40
2023-04-16T04:07:17.093Z,16.25
2023-04-16T04:09:43.515Z,16.80
2023-04-16T04:12:10.133Z,16.85
2023-04-16T04:14:39.827Z,17.98
2023-04-16T04:17:07.971Z,17.73
2023-04-16T04:19:34.567Z,17.58
2023-04-16T04:22:02.082Z,16.35
2023-04-16T04:24:28.626Z,16.88
2023-04-16T04:26:55.162Z,17.48
2023-04-16T04:29:21.854Z,17.58
2023-04-16T04:31:49.365Z,16.73
2023-04-16T04:34:15.955Z,17.65
2023-04-16T04:36:42.450Z,17.38
2023-04-16T04:39:09.534Z,17.02
2023-04-16T04:41:36.325Z,17.50
2023-04-16T04:44:03.542Z,18.67
2023-04-16T04:46:30.103Z,16.50
2023-04-16T04:48:56.502Z,18.17
2023-04-16T04:51:22.906Z,18.13
2023-04-16T04:53:49.286Z,17.23
2023-04-16T04:56:15.755Z,17.60
2023-04-16T04:58:42.385Z,16.45
2023-04-16T05:01:08.825Z,16.83
2023-04-16T05:03:35.481Z,17.33
2023-04-16T05:06:02.044Z,17.42
2023-04-16T05:08:28.455Z,16.98
2023-04-16T05:10:54.891Z,17.35
2023-04-16T05:13:21.569Z,17.77
2023-04-16T05:15:47.972Z,17.40
2023-04-16T05:18:14.750Z,16.88
2023-04-16T05:20:41.118Z,17.60
2023-04-16T05:23:07.589Z,16.92
2023-04-16T05:25:33.986Z,17.20
2023-04-16T05:28:00.441Z,17.25
2023-04-16T05:30:26.804Z,17.42
2023-04-16T05:32:53.264Z,17.27
2023-04-16T05:35:19.711Z,16.88
2023-04-16T05:37:46.115Z,17.42
2023-04-16T05:40:14.044Z,17.95
2023-04-16T05:42:40.478Z,16.33
2023-04-16T05:45:07.317Z,16.83
2023-04-16T05:47:36.752Z,17.42
2023-04-16T05:50:03.155Z,18.88
2023-04-16T05:52:29.514Z,18.42
2023-04-16T05:54:55.989Z,17.92
2023-04-16T05:57:22.405Z,19.05
2023-04-16T05:59:48.762Z,17.88
2023-04-16T06:02:15.397Z,18.08
2023-04-16T06:04:41.847Z,18.88
2023-04-16T06:07:08.209Z,18.67
2023-04-16T06:09:34.571Z,18.98
2023-04-16T06:12:01.209Z,17.50
2023-04-16T06:14:27.617Z,18.08
2023-04-16T06:16:53.991Z,18.02
2023-04-16T06:19:20.500Z,18.08
2023-04-16T06:21:46.890Z,18.88
2023-04-16T06:24:13.315Z,18.08
2023-04-16T06:26:39.793Z,18.02
2023-04-16T06:29:06.230Z,17.98
2023-04-16T06:31:32.747Z,17.08
2023-04-16T06:33:59.142Z,17.08
2023-04-16T06:36:26.911Z,18.20
2023-04-16T06:38:53.329Z,17.23
2023-04-16T06:41:19.706Z,18.27
2023-04-16T06:43:46.109Z,16.83
2023-04-16T06:46:12.502Z,17.38
2023-04-16T06:48:39.935Z,17.35
2023-04-16T06:51:06.344Z,17.83
2023-04-16T06:53:33.260Z,18.65
2023-04-16T06:55:59.617Z,19.70
2023-04-16T06:58:25.993Z,17.90
2023-04-16T07:00:52.418Z,16.98
2023-04-16T07:03:18.890Z,18.38
2023-04-16T07:05:45.650Z,17.00
2023-04-16T07:08:12.029Z,17.45
2023-04-16T07:10:40.317Z,18.83
2023-04-16T07:13:08.729Z,17.58
2023-04-16T07:15:35.508Z,18.58
2023-04-16T07:18:01.954Z,16.50
2023-04-16T07:20:28.544Z,18.02
2023-04-16T07:22:54.981Z,17.65
2023-04-16T07:25:21.530Z,17.00
2023-04-16T07:27:47.999Z,17.52
2023-04-16T07:30:14.455Z,17.08
2023-04-16T07:32:40.884Z,16.75
2023-04-16T07:35:07.533Z,17.00
2023-04-16T07:37:33.891Z,16.55
2023-04-16T07:40:00.690Z,17.30
2023-04-16T07:42:27.936Z,16.05
2023-04-16T07:44:54.941Z,15.25
2023-04-16T07:47:23.028Z,16.52
2023-04-16T07:49:50.574Z,17.10
2023-04-16T07:52:16.924Z,16.33
2023-04-16T07:54:43.327Z,16.42
2023-04-16T07:57:09.709Z,14.82
2023-04-16T07:59:36.158Z,15.05
2023-04-16T08:02:02.628Z,17.17
2023-04-16T08:04:29.239Z,15.63
2023-04-16T08:06:56.056Z,16.42
2023-04-16T08:09:23.941Z,16.17
2023-04-16T08:11:50.759Z,15.57
2023-04-16T08:14:17.679Z,15.18
2023-04-16T08:16:44.173Z,15.48
2023-04-16T08:19:10.875Z,14.48
2023-04-16T08:21:37.638Z,15.68
2023-04-16T08:24:04.125Z,15.27
2023-04-16T08:26:32.763Z,15.90
2023-04-16T08:28:59.187Z,15.85
2023-04-16T08:31:25.825Z,16.05
2023-04-16T08:33:53.412Z,15.02
2023-04-16T08:36:19.791Z,15.80
2023-04-16T08:38:46.255Z,15.93
2023-04-16T08:41:13.460Z,14.60
2023-04-16T08:43:44.526Z,16.00
2023-04-16T08:46:12.213Z,15.57
2023-04-16T08:48:41.762Z,16.48
2023-04-16T08:51:13.861Z,15.80
2023-04-16T08:53:52.933Z,14.80
2023-04-16T08:56:23.796Z,14.63
2023-04-16T08:58:51.569Z,14.68
2023-04-16T09:01:19.539Z,14.43
2023-04-16T09:03:48.280Z,15.77
2023-04-16T09:06:19.131Z,15.75
2023-04-16T09:08:46.281Z,15.85
2023-04-16T09:11:17.932Z,15.60
2023-04-16T09:13:45.914Z,15.88
2023-04-16T09:16:13.303Z,14.18
2023-04-16T09:18:39.884Z,15.13
2023-04-16T09:21:08.441Z,14.60
2023-04-16T09:23:35.413Z,14.13
2023-04-16T09:26:02.272Z,13.77
2023-04-16T09:28:46.771Z,13.73
2023-04-16T09:31:14.962Z,15.02
2023-04-16T09:33:42.872Z,15.35
2023-04-16T09:36:09.988Z,14.88
2023-04-16T09:38:46.735Z,14.75
2023-04-16T09:41:13.765Z,14.82
2023-04-16T09:43:40.238Z,14.68
2023-04-16T09:46:12.536Z,14.40
2023-04-16T09:48:38.952Z,14.15
2023-04-16T09:51:06.950Z,13.35
2023-04-16T09:53:33.388Z,13.73
2023-04-16T09:56:01.943Z,15.32
2023-04-16T09:58:29.145Z,14.35
2023-04-16T10:01:17.909Z,14.80
2023-04-16T10:03:49.891Z,14.40
2023-04-16T10:06:20.525Z,13.52
2023-04-16T10:08:51.665Z,13.02
2023-04-16T10:11:19.784Z,13.57
2023-04-16T10:13:46.400Z,13.00
2023-04-16T10:16:13.307Z,14.25
2023-04-16T10:18:44.406Z,12.98
2023-04-16T10:21:12.607Z,12.82
2023-04-16T10:23:39.989Z,13.80
2023-04-16T10:26:06.459Z,13.98
2023-04-16T10:28:35.306Z,13.63
2023-04-16T10:31:03.960Z,14.10
2023-04-16T10:33:32.652Z,13.18
2023-04-16T10:36:08.417Z,13.40
2023-04-16T10:38:35.403Z,12.77
2023-04-16T10:41:03.529Z,13.88
2023-04-16T10:43:44.269Z,13.82
2023-04-16T10:46:30.236Z,13.18
2023-04-16T10:49:01.295Z,13.77
2023-04-16T10:51:32.185Z,13.60
2023-04-16T10:54:03.041Z,14.27
2023-04-16T10:56:32.527Z,13.73
2023-04-16T10:58:58.938Z,14.00
2023-04-16T11:01:33.901Z,13.38
2023-04-16T11:04:21.444Z,13.95
2023-04-16T11:07:16.980Z,13.05
2023-04-16T11:09:56.096Z,14.43
2023-04-16T11:12:27.161Z,14.18
2023-04-16T11:14:57.935Z,14.63
2023-04-16T11:17:29.349Z,13.80
2023-04-16T11:19:56.354Z,13.52
2023-04-16T11:22:22.816Z,14.23
2023-04-16T11:24:55.281Z,14.65
2023-04-16T11:27:22.647Z,14.48
2023-04-16T11:30:00.584Z,13.48
2023-04-16T11:32:27.119Z,13.05
2023-04-16T11:34:53.660Z,12.98
2023-04-16T11:37:36.671Z,12.77
2023-04-16T11:40:08.216Z,13.05
2023-04-16T11:42:40.324Z,12.32
2023-04-16T11:45:08.311Z,12.02
2023-04-16T11:47:46.494Z,12.48
2023-04-16T11:50:21.447Z,13.48
2023-04-16T11:52:48.619Z,12.30
2023-04-16T11:55:15.544Z,12.20
2023-04-16T11:57:42.157Z,13.27
2023-04-16T12:00:13.826Z,12.93
2023-04-16T12:02:45.933Z,13.35
2023-04-16T12:05:34.394Z,13.13
2023-04-16T12:08:02.546Z,13.13
2023-04-16T12:10:30.131Z,12.98
2023-04-16T12:13:17.371Z,12.00
2023-04-16T12:15:49.228Z,11.90
2023-04-16T12:18:16.651Z,11.75
2023-04-16T12:20:44.161Z,11.82
2023-04-16T12:23:11.387Z,11.95
2023-04-16T12:25:37.757Z,11.85
2023-04-16T12:28:04.490Z,10.60
2023-04-16T12:30:31.205Z,11.10
2023-04-16T12:33:17.309Z,12.57
2023-04-16T12:35:44.825Z,13.38
2023-04-16T12:38:11.865Z,11.55
2023-04-16T12:40:38.462Z,12.43
2023-04-16T12:43:04.964Z,11.30
2023-04-16T12:45:31.308Z,12.00
2023-04-16T12:47:57.932Z,11.25
2023-04-16T12:50:24.547Z,12.68
2023-04-16T12:52:50.970Z,13.20
2023-04-16T12:55:17.460Z,12.88
2023-04-16T12:57:44.443Z,13.88
2023-04-16T13:00:11.228Z,12.68
2023-04-16T13:02:37.884Z,12.32
2023-04-16T13:05:04.761Z,13.63
2023-04-16T13:07:32.259Z,12.20
2023-04-16T13:09:59.293Z,12.93
2023-04-16T13:12:27.175Z,13.25
2023-04-16T13:14:54.233Z,13.60
2023-04-16T13:17:20.652Z,13.20
2023-04-16T13:19:47.038Z,14.45
2023-04-16T13:22:13.552Z,13.77
2023-04-16T13:24:39.933Z,14.43
2023-04-16T13:27:08.248Z,14.75
2023-04-16T13:29:36.618Z,14.05
2023-04-16T13:32:03.569Z,14.15
2023-04-16T13:34:30.144Z,12.77
2023-04-16T13:36:56.499Z,14.38
2023-04-16T13:39:22.845Z,13.27
2023-04-16T13:41:50.119Z,12.90
2023-04-16T13:44:16.598Z,12.85
2023-04-16T13:46:47.810Z,14.73
2023-04-16T13:49:14.889Z,14.82
2023-04-16T13:51:44.533Z,14.15
2023-04-16T13:54:14.891Z,13.63
2023-04-16T13:56:41.418Z,13.82
2023-04-16T13:59:08.066Z,13.35
2023-04-16T14:01:34.598Z,13.85
2023-04-16T14:04:05.942Z,13.77
2023-04-16T14:06:33.657Z,13.43
2023-04-16T14:09:00.305Z,13.18
2023-04-16T14:11:28.647Z,13.23
2023-04-16T14:13:55.579Z,14.52
2023-04-16T14:16:22.091Z,13.85
2023-04-16T14:18:48.522Z,14.32
2023-04-16T14:21:14.903Z,14.02
2023-04-16T14:23:41.391Z,13.02
2023-04-16T14:26:08.254Z,14.80
2023-04-16T14:28:35.594Z,14.75
2023-04-16T14:31:02.004Z,14.73
2023-04-16T14:33:28.378Z,13.93
2023-04-16T14:35:54.811Z,15.20
2023-04-16T14:38:21.222Z,14.52
2023-04-16T14:40:48.300Z,13.88
2023-04-16T14:43:14.871Z,14.82
2023-04-16T14:45:41.680Z,15.98
2023-04-16T14:48:08.117Z,15.23
2023-04-16T14:50:38.850Z,13.75
2023-04-16T14:53:05.858Z,15.45
2023-04-16T14:55:32.501Z,14.20
2023-04-16T14:57:59.595Z,15.85
2023-04-16T15:00:26.226Z,15.30
2023-04-16T15:02:53.626Z,14.98
2023-04-16T15:05:20.315Z,14.13
2023-04-16T15:07:46.732Z,14.45
2023-04-16T15:10:13.287Z,15.07
2023-04-16T15:12:39.686Z,14.98
2023-04-16T15:15:09.657Z,15.35
2023-04-16T15:17:36.374Z,14.80
2023-04-16T15:20:05.752Z,14.75
2023-04-16T15:22:32.135Z,14.45
2023-04-16T15:24:58.504Z,15.15
2023-04-16T15:27:24.911Z,15.32
2023-04-16T15:29:53.145Z,15.15
2023-04-16T15:32:19.655Z,15.73
2023-04-16T15:34:46.521Z,13.32
2023-04-16T15:37:13.138Z,14.68
2023-04-16T15:39:39.593Z,14.10
2023-04-16T15:42:07.425Z,14.20
2023-04-16T15:44:34.712Z,15.68
2023-04-16T15:47:01.674Z,13.70
2023-04-16T15:49:28.096Z,16.17
2023-04-16T15:51:55.467Z,14.50
2023-04-16T15:54:21.903Z,15.65
2023-04-16T15:56:48.297Z,15.73
2023-04-16T15:59:14.690Z,15.50
2023-04-16T16:01:41.097Z,15.07
2023-04-16T16:04:08.203Z,16.95
2023-04-16T16:06:34.944Z,16.02
2023-04-16T16:09:01.668Z,17.35
2023-04-16T16:11:28.511Z,14.68
2023-04-16T16:13:55.377Z,15.98
2023-04-16T16:16:22.004Z,17.05
2023-04-16T16:18:48.639Z,16.70
2023-04-16T16:21:15.065Z,17.15
2023-04-16T16:23:41.456Z,15.98
2023-04-16T16:26:07.928Z,16.58
2023-04-16T16:28:37.472Z,16.20
2023-04-16T16:31:05.712Z,17.08
2023-04-16T16:33:32.132Z,16.35
2023-04-16T16:35:58.620Z,16.35
2023-04-16T16:38:24.974Z,17.42
2023-04-16T16:40:51.326Z,16.13
2023-04-16T16:43:17.745Z,16.13
2023-04-16T16:45:44.174Z,16.15
2023-04-16T16:48:10.649Z,16.52
2023-04-16T16:50:37.043Z,15.27
2023-04-16T16:53:03.547Z,15.40
2023-04-16T16:55:31.195Z,16.00
2023-04-16T16:57:58.343Z,15.65
2023-04-16T17:00:24.859Z,15.35
2023-04-16T17:02:51.959Z,15.18
2023-04-16T17:05:18.662Z,15.85
2023-04-16T17:07:45.701Z,15.48
2023-04-16T17:10:15.712Z,16.15
2023-04-16T17:12:42.407Z,15.40
2023-04-16T17:15:09.540Z,15.68
2023-04-16T17:17:35.969Z,15.90
2023-04-16T17:20:08.154Z,17.33
2023-04-16T17:22:34.865Z,15.35
2023-04-16T17:25:01.649Z,16.05
2023-04-16T17:27:29.338Z,15.00
2023-04-16T17:30:00.004Z,14.55
2023-04-16T17:32:26.695Z,15.38
2023-04-16T17:34:55.381Z,14.50
2023-04-16T17:37:22.592Z,16.05
2023-04-16T17:39:49.443Z,15.50
2023-04-16T17:42:16.036Z,15.40
2023-04-16T17:44:42.426Z,15.50
2023-04-16T17:47:08.976Z,15.85
2023-04-16T17:49:35.476Z,15.63
2023-04-16T17:52:02.040Z,15.15
2023-04-16T17:54:28.432Z,16.35
2023-04-16T17:56:54.824Z,15.73
2023-04-16T17:59:21.739Z,16.15
2023-04-16T18:01:49.474Z,16.00
2023-04-16T18:04:16.479Z,16.02
2023-04-16T18:06:43.254Z,15.80
2023-04-16T18:09:09.628Z,16.50
2023-04-16T18:11:36.179Z,16.92
2023-04-16T18:14:02.584Z,16.80
2023-04-16T18:16:29.030Z,15.15
2023-04-16T18:18:55.497Z,15.57
2023-04-16T18:21:21.989Z,16.75
2023-04-16T18:23:48.373Z,15.80
2023-04-16T18:26:18.410Z,16.50
2023-04-16T18:28:47.210Z,15.07
2023-04-16T18:31:13.836Z,16.73
2023-04-16T18:33:55.711Z,14.90
2023-04-16T18:36:24.258Z,16.10
2023-04-16T18:39:00.974Z,14.93
2023-04-16T18:41:29.554Z,16.38
2023-04-16T18:43:56.045Z,15.95
2023-04-16T18:46:22.499Z,16.52
2023-04-16T18:48:48.905Z,15.95
2023-04-16T18:51:19.449Z,15.73
2023-04-16T18:53:52.237Z,15.75
2023-04-16T18:56:18.664Z,15.23
2023-04-16T18:58:45.042Z,18.10
2023-04-16T19:01:13.399Z,16.30
2023-04-16T19:03:40.050Z,16.45
2023-04-16T19:06:06.489Z,16.13
2023-04-16T19:08:32.998Z,15.95
2023-04-16T19:10:59.499Z,16.67
2023-04-16T19:13:26.007Z,15.90
2023-04-16T19:16:00.833Z,14.80
2023-04-16T19:18:28.055Z,16.58
2023-04-16T19:21:01.170Z,15.95
2023-04-16T19:23:28.146Z,14.68
2023-04-16T19:25:57.740Z,14.88
2023-04-16T19:28:24.631Z,15.93
2023-04-16T19:30:52.254Z,14.93
2023-04-16T19:33:18.968Z,16.08
2023-04-16T19:35:46.139Z,15.52
2023-04-16T19:38:12.508Z,15.85
2023-04-16T19:40:38.971Z,16.10
2023-04-16T19:43:05.592Z,16.55
2023-04-16T19:45:32.068Z,16.63
2023-04-16T19:47:58.869Z,15.35
2023-04-16T19:50:25.265Z,15.88
2023-04-16T19:52:51.925Z,15.27
2023-04-16T19:55:18.902Z,16.40
2023-04-16T19:57:48.035Z,15.57
2023-04-16T20:00:14.850Z,16.30
2023-04-16T20:02:41.424Z,17.13
2023-04-16T20:05:08.484Z,16.65
2023-04-16T20:07:34.918Z,16.83
2023-04-16T20:10:02.674Z,17.58
2023-04-16T20:12:29.055Z,16.75
2023-04-16T20:14:55.641Z,16.92
2023-04-16T20:17:22.236Z,16.05
2023-04-16T20:19:49.396Z,16.95
2023-04-16T20:22:18.171Z,17.60
2023-04-16T20:24:47.879Z,16.88
2023-04-16T20:27:14.971Z,17.00
2023-04-16T20:29:41.917Z,16.25
2023-04-16T20:32:08.444Z,15.73
2023-04-16T20:34:34.928Z,16.02
2023-04-16T20:37:01.364Z,15.95
2023-04-16T20:39:34.575Z,16.80
2023-04-16T20:42:04.149Z,15.95
2023-04-16T20:44:40.102Z,16.50
2023-04-16T20:47:15.161Z,16.40
2023-04-16T20:49:48.200Z,16.02
2023-04-16T20:52:17.669Z,16.05
2023-04-16T20:54:44.397Z,16.35
2023-04-16T20:57:11.033Z,15.35
2023-04-16T20:59:37.426Z,17.30
2023-04-16T21:02:04.368Z,16.85
2023-04-16T21:04:31.024Z,16.02
2023-04-16T21:06:57.518Z,16.60
2023-04-16T21:09:24.163Z,16.35
2023-04-16T21:11:50.652Z,16.10
2023-04-16T21:14:17.023Z,16.30
2023-04-16T21:16:43.428Z,16.45
2023-04-16T21:19:10.046Z,16.85
2023-04-16T21:21:38.159Z,16.58
2023-04-16T21:24:04.677Z,16.92
2023-04-16T21:26:31.037Z,16.33
2023-04-16T21:28:57.421Z,17.35
2023-04-16T21:31:24.120Z,16.90
2023-04-16T21:33:50.682Z,16.83
2023-04-16T21:36:17.129Z,17.30
2023-04-16T21:38:43.550Z,17.17
2023-04-16T21:41:10.014Z,16.67
2023-04-16T21:43:36.365Z,17.40
2023-04-16T21:46:02.929Z,17.63
2023-04-16T21:48:29.431Z,16.77
2023-04-16T21:51:00.973Z,17.98
2023-04-16T21:53:31.987Z,17.92
2023-04-16T21:55:58.600Z,18.08
2023-04-16T21:58:28.164Z,16.75
2023-04-16T22:00:54.628Z,16.40
2023-04-16T22:03:27.676Z,18.05
2023-04-16T22:06:00.603Z,18.17
2023-04-16T22:08:30.879Z,18.08
2023-04-16T22:11:01.927Z,17.20
2023-04-16T22:13:32.240Z,17.67
2023-04-16T22:16:02.505Z,17.05
2023-04-16T22:18:32.620Z,17.00
2023-04-16T22:20:59.892Z,16.42
2023-04-16T22:23:26.307Z,17.10
2023-04-16T22:25:54.770Z,16.52
2023-04-16T22:28:21.786Z,17.08
2023-04-16T22:30:48.325Z,16.73
2023-04-16T22:33:14.742Z,16.88
2023-04-16T22:35:41.328Z,16.73
2023-04-16T22:38:07.733Z,17.20
2023-04-16T22:40:34.091Z,16.40
2023-04-16T22:43:00.529Z,16.15
2023-04-16T22:45:27.289Z,17.40
2023-04-16T22:47:53.802Z,17.08
2023-04-16T22:50:20.634Z,16.90
2023-04-16T22:52:47.088Z,17.67
2023-04-16T22:55:13.428Z,16.63
2023-04-16T22:57:39.807Z,17.88
2023-04-16T23:00:09.666Z,16.33
2023-04-16T23:02:36.287Z,16.13
2023-04-16T23:05:03.010Z,15.95
2023-04-16T23:07:29.420Z,17.40
2023-04-16T23:09:55.804Z,17.15
2023-04-16T23:12:22.152Z,16.15
2023-04-16T23:14:48.550Z,16.05
2023-04-16T23:17:14.927Z,17.73
2023-04-16T23:19:41.802Z,16.42
2023-04-16T23:22:08.187Z,17.25
2023-04-16T23:24:34.610Z,17.67
2023-04-16T23:27:01.345Z,16.30
2023-04-16T23:29:27.777Z,16.92
2023-04-16T23:31:54.185Z,17.17
2023-04-16T23:34:20.546Z,16.40
2023-04-16T23:36:46.960Z,16.05
2023-04-16T23:39:13.504Z,17.23
2023-04-16T23:41:40.294Z,16.67
2023-04-16T23:44:06.652Z,16.55
2023-04-16T23:46:33.037Z,17.48
2023-04-16T23:48:59.403Z,16.75
2023-04-16T23:51:26.507Z,17.30
2023-04-16T23:53:52.849Z,17.05
2023-04-16T23:56:19.211Z,16.92
2023-04-16T23:58:45.747Z,16.58
